Time;durP1;ratioP1;P1;durP2;ratioP2;P2;SDS_P1;SDS_P2;PMS_P1;PMS_P2;Temp;Humidity;BMP_temperature;BMP_pressure;BME280_temperature;BME280_humidity;BME280_pressure;Samples;Min_cycle;Max_cycle;Signal;HPM_P1;HPM_P2
2023/09/14 00:01:14;;;;;;;0.90;0.90;;;;;;;;;;5100691;28;20231;-66
2023/09/14 00:03:41;;;;;;;1.08;1.00;;;;;;;;;;5100439;28;20200;-66
2023/09/14 00:06:10;;;;;;;1.02;1.00;;;;;;;;;;5100769;28;20211;-66
2023/09/14 00:08:38;;;;;;;1.00;1.00;;;;;;;;;;5100543;28;20626;-66
2023/09/14 00:11:05;;;;;;;0.90;0.90;;;;;;;;;;5100637;28;20225;-66
2023/09/14 00:13:33;;;;;;;1.15;1.05;;;;;;;;;;5099988;28;20231;-66
2023/09/14 00:16:00;;;;;;;1.40;1.00;;;;;;;;;;5100480;28;20214;-66
2023/09/14 00:18:28;;;;;;;0.90;0.90;;;;;;;;;;5100367;28;20235;-66
2023/09/14 00:20:57;;;;;;;1.38;0.80;;;;;;;;;;5100549;28;20650;-66
2023/09/14 00:23:26;;;;;;;1.08;0.98;;;;;;;;;;5100059;28;20253;-66
2023/09/14 00:25:53;;;;;;;1.02;0.80;;;;;;;;;;5100277;28;20249;-66
2023/09/14 00:28:20;;;;;;;0.80;0.80;;;;;;;;;;5100205;28;20264;-66
2023/09/14 00:30:51;;;;;;;1.38;1.10;;;;;;;;;;5100289;28;20619;-66
2023/09/14 00:33:18;;;;;;;0.70;0.70;;;;;;;;;;5100007;28;20267;-66
2023/09/14 00:35:47;;;;;;;0.70;0.63;;;;;;;;;;5100167;28;20325;-66
2023/09/14 00:38:15;;;;;;;1.23;0.85;;;;;;;;;;5099916;28;20241;-66
2023/09/14 00:40:44;;;;;;;0.63;0.60;;;;;;;;;;5100240;28;20199;-66
2023/09/14 00:43:11;;;;;;;1.58;0.85;;;;;;;;;;5100479;28;20436;-66
2023/09/14 00:45:39;;;;;;;0.73;0.70;;;;;;;;;;5100152;28;20210;-66
2023/09/14 00:48:08;;;;;;;1.30;0.68;;;;;;;;;;5099787;28;20294;-66
2023/09/14 00:50:36;;;;;;;0.70;0.70;;;;;;;;;;5099663;28;20241;-66
2023/09/14 00:53:05;;;;;;;0.70;0.60;;;;;;;;;;5099950;28;20519;-66
2023/09/14 00:55:33;;;;;;;0.90;0.70;;;;;;;;;;5100034;28;20204;-66
2023/09/14 00:58:02;;;;;;;0.82;0.60;;;;;;;;;;5100260;28;20560;-66
2023/09/14 01:00:31;;;;;;;0.68;0.57;;;;;;;;;;5099720;28;20243;-66
2023/09/14 01:02:58;;;;;;;0.50;0.50;;;;;;;;;;5099628;28;20199;-66
2023/09/14 01:05:28;;;;;;;0.70;0.70;;;;;;;;;;5099363;28;20203;-66
2023/09/14 01:07:55;;;;;;;0.68;0.50;;;;;;;;;;5099486;28;20239;-66
2023/09/14 01:10:23;;;;;;;0.50;0.43;;;;;;;;;;5099464;28;20298;-66
2023/09/14 01:12:50;;;;;;;0.52;0.50;;;;;;;;;;5090936;28;20233;-66
2023/09/14 01:15:22;;;;;;;0.65;0.60;;;;;;;;;;5099322;28;20204;-66
2023/09/14 01:17:54;;;;;;;1.13;0.60;;;;;;;;;;5099167;28;20207;-66
2023/09/14 01:20:35;;;;;;;1.05;0.77;;;;;;;;;;5099516;28;20318;-66
2023/09/14 01:23:08;;;;;;;0.50;0.47;;;;;;;;;;5098871;28;20285;-66
2023/09/14 01:25:42;;;;;;;0.70;0.65;;;;;;;;;;5099036;28;20204;-66
2023/09/14 01:28:09;;;;;;;0.40;0.40;;;;;;;;;;5099023;28;20211;-66
2023/09/14 01:30:37;;;;;;;1.48;0.60;;;;;;;;;;5099071;28;20206;-66
2023/09/14 01:33:06;;;;;;;0.68;0.60;;;;;;;;;;5098691;28;20231;-66
2023/09/14 01:35:35;;;;;;;0.80;0.73;;;;;;;;;;5099164;28;20610;-66
2023/09/14 01:38:03;;;;;;;0.93;0.80;;;;;;;;;;5077174;28;20654;-66
2023/09/14 01:40:32;;;;;;;0.80;0.80;;;;;;;;;;5095814;28;20260;-66
2023/09/14 01:43:01;;;;;;;0.88;0.80;;;;;;;;;;5098719;28;20563;-66
2023/09/14 01:45:29;;;;;;;1.40;1.15;;;;;;;;;;5098997;28;20299;-66
2023/09/14 01:47:57;;;;;;;1.45;1.30;;;;;;;;;;5098873;28;20297;-66
2023/09/14 01:50:25;;;;;;;1.73;1.33;;;;;;;;;;5098957;28;20298;-66
2023/09/14 01:52:53;;;;;;;1.58;1.30;;;;;;;;;;5098507;28;20228;-66
2023/09/14 01:55:20;;;;;;;1.75;1.30;;;;;;;;;;5098521;28;20208;-66
2023/09/14 01:57:48;;;;;;;1.70;1.30;;;;;;;;;;5098270;28;20705;-66
2023/09/14 02:00:17;;;;;;;2.17;1.52;;;;;;;;;;5098484;28;20214;-66
2023/09/14 02:02:44;;;;;;;2.53;1.60;;;;;;;;;;5098551;28;20311;-66
2023/09/14 02:05:12;;;;;;;1.70;1.60;;;;;;;;;;5098411;28;20297;-66
2023/09/14 02:07:40;;;;;;;1.55;1.23;;;;;;;;;;5098553;28;20298;-66
2023/09/14 02:10:07;;;;;;;2.72;1.50;;;;;;;;;;5098317;28;20269;-66
2023/09/14 02:12:35;;;;;;;1.88;1.65;;;;;;;;;;5098138;28;20265;-66
2023/09/14 02:15:02;;;;;;;1.85;1.60;;;;;;;;;;5098607;28;20213;-66
2023/09/14 02:17:32;;;;;;;2.42;1.70;;;;;;;;;;5098070;28;20213;-66
2023/09/14 02:19:59;;;;;;;2.20;2.00;;;;;;;;;;5097972;28;20306;-66
2023/09/14 02:22:27;;;;;;;1.70;1.60;;;;;;;;;;5097882;28;20267;-66
2023/09/14 02:24:55;;;;;;;2.33;1.70;;;;;;;;;;5098047;28;20208;-66
2023/09/14 02:27:22;;;;;;;2.63;1.85;;;;;;;;;;5098064;28;20203;-66
2023/09/14 02:29:54;;;;;;;2.00;1.80;;;;;;;;;;5097706;28;20298;-66
2023/09/14 02:32:21;;;;;;;1.85;1.70;;;;;;;;;;5097985;28;20203;-66
2023/09/14 02:34:50;;;;;;;1.92;1.60;;;;;;;;;;5097796;28;20627;-66
2023/09/14 02:37:17;;;;;;;1.80;1.70;;;;;;;;;;5097734;28;20277;-66
2023/09/14 02:39:45;;;;;;;2.10;1.88;;;;;;;;;;5097903;28;20276;-66
2023/09/14 02:42:12;;;;;;;2.17;1.88;;;;;;;;;;5097747;28;20286;-66
2023/09/14 02:44:40;;;;;;;2.65;1.70;;;;;;;;;;5097818;28;20210;-66
2023/09/14 02:47:07;;;;;;;2.20;1.42;;;;;;;;;;5097405;28;20203;-66
2023/09/14 02:49:35;;;;;;;2.67;1.92;;;;;;;;;;5097470;28;20257;-66
2023/09/14 02:52:04;;;;;;;2.00;1.80;;;;;;;;;;5097242;28;20211;-66
2023/09/14 02:54:31;;;;;;;2.13;1.92;;;;;;;;;;5096988;28;20223;-66
2023/09/14 02:56:59;;;;;;;2.13;1.80;;;;;;;;;;5097541;28;20302;-66
2023/09/14 02:59:26;;;;;;;2.78;1.70;;;;;;;;;;5097574;28;20203;-66
2023/09/14 03:01:54;;;;;;;3.15;1.98;;;;;;;;;;5097411;28;20290;-66
2023/09/14 03:04:21;;;;;;;1.77;1.67;;;;;;;;;;5097398;28;20579;-66
2023/09/14 03:06:50;;;;;;;2.40;1.80;;;;;;;;;;5097248;28;20298;-66
2023/09/14 03:09:19;;;;;;;2.50;1.90;;;;;;;;;;5097374;28;20230;-66
2023/09/14 03:11:46;;;;;;;2.67;2.00;;;;;;;;;;5097653;28;20250;-66
2023/09/14 03:14:13;;;;;;;2.15;1.70;;;;;;;;;;5097427;28;20227;-66
2023/09/14 03:16:41;;;;;;;2.38;1.80;;;;;;;;;;5097082;28;20587;-66
2023/09/14 03:19:08;;;;;;;1.60;1.50;;;;;;;;;;5097123;28;20310;-66
2023/09/14 03:21:36;;;;;;;2.42;1.80;;;;;;;;;;5097142;28;20203;-66
2023/09/14 03:24:03;;;;;;;1.67;1.50;;;;;;;;;;5097228;28;20568;-66
2023/09/14 03:26:32;;;;;;;1.98;1.60;;;;;;;;;;5096632;28;20250;-66
2023/09/14 03:29:00;;;;;;;2.22;1.88;;;;;;;;;;5096612;28;20654;-66
2023/09/14 03:31:28;;;;;;;2.10;1.90;;;;;;;;;;5097098;28;20268;-67
2023/09/14 03:33:56;;;;;;;2.22;1.83;;;;;;;;;;5096999;28;20312;-66
2023/09/14 03:36:23;;;;;;;2.28;1.67;;;;;;;;;;5096362;28;20208;-66
2023/09/14 03:38:51;;;;;;;2.65;2.08;;;;;;;;;;5096914;28;20238;-66
2023/09/14 03:41:18;;;;;;;2.42;1.80;;;;;;;;;;5096583;28;20589;-66
2023/09/14 03:43:47;;;;;;;2.80;1.90;;;;;;;;;;5096774;28;20243;-66
2023/09/14 03:46:15;;;;;;;2.28;1.85;;;;;;;;;;5096627;28;20241;-66
2023/09/14 03:48:43;;;;;;;2.22;1.77;;;;;;;;;;5095674;28;20204;-66
2023/09/14 03:51:10;;;;;;;2.72;2.00;;;;;;;;;;5096501;28;20486;-66
2023/09/14 03:53:37;;;;;;;3.90;2.08;;;;;;;;;;5096151;28;20230;-66
2023/09/14 03:56:05;;;;;;;2.20;1.75;;;;;;;;;;5096499;28;20552;-66
2023/09/14 03:58:33;;;;;;;2.05;1.70;;;;;;;;;;5096774;28;20235;-66
2023/09/14 04:01:03;;;;;;;2.05;1.67;;;;;;;;;;5096475;28;20303;-66
2023/09/14 04:03:30;;;;;;;2.17;1.95;;;;;;;;;;5096270;28;20204;-66
2023/09/14 04:05:58;;;;;;;2.63;1.90;;;;;;;;;;5100140;28;20211;-66
2023/09/14 04:08:26;;;;;;;3.30;1.90;;;;;;;;;;5100486;28;20290;-66
2023/09/14 04:10:53;;;;;;;2.03;1.60;;;;;;;;;;5100288;28;20286;-66
2023/09/14 04:13:28;;;;;;;2.60;1.98;;;;;;;;;;5100504;28;20239;-66
2023/09/14 04:15:55;;;;;;;2.63;1.75;;;;;;;;;;5099002;28;20306;-66
2023/09/14 04:18:24;;;;;;;2.05;1.70;;;;;;;;;;5100075;28;20316;-66
2023/09/14 04:20:52;;;;;;;2.35;1.70;;;;;;;;;;5100084;28;20204;-66
2023/09/14 04:23:20;;;;;;;2.17;1.67;;;;;;;;;;5099624;28;20238;-66
2023/09/14 04:25:48;;;;;;;2.88;1.67;;;;;;;;;;5099315;28;20222;-66
2023/09/14 04:28:16;;;;;;;3.20;1.80;;;;;;;;;;5099681;28;20591;-66
2023/09/14 04:30:45;;;;;;;2.20;1.60;;;;;;;;;;5099342;28;20203;-66
2023/09/14 04:33:12;;;;;;;2.88;1.65;;;;;;;;;;5099444;28;20211;-66
2023/09/14 04:35:41;;;;;;;2.35;1.80;;;;;;;;;;5099449;28;20207;-66
2023/09/14 04:38:09;;;;;;;2.28;1.98;;;;;;;;;;5098687;28;20266;-66
2023/09/14 04:40:38;;;;;;;3.15;1.95;;;;;;;;;;5098181;28;20231;-66
2023/09/14 04:43:06;;;;;;;2.10;1.80;;;;;;;;;;5098841;28;20274;-66
2023/09/14 04:45:34;;;;;;;2.72;1.90;;;;;;;;;;5098495;28;20506;-66
2023/09/14 04:48:01;;;;;;;2.25;2.00;;;;;;;;;;5098076;28;20208;-66
2023/09/14 04:50:29;;;;;;;2.55;1.95;;;;;;;;;;5098916;28;20305;-66
2023/09/14 04:52:58;;;;;;;3.92;2.30;;;;;;;;;;5098389;28;20250;-66
2023/09/14 04:55:26;;;;;;;2.60;1.90;;;;;;;;;;5097626;28;20231;-66
2023/09/14 04:57:53;;;;;;;3.63;2.08;;;;;;;;;;5097705;28;20599;-66
2023/09/14 05:00:21;;;;;;;2.75;1.67;;;;;;;;;;5097728;28;20286;-66
2023/09/14 05:02:48;;;;;;;2.72;2.17;;;;;;;;;;5096803;28;20196;-66
2023/09/14 05:05:16;;;;;;;2.20;1.90;;;;;;;;;;5096711;28;20239;-66
2023/09/14 05:07:44;;;;;;;2.67;2.30;;;;;;;;;;5096692;28;20200;-66
2023/09/14 05:10:13;;;;;;;4.00;2.28;;;;;;;;;;5096813;28;20204;-66
2023/09/14 05:12:40;;;;;;;3.10;1.90;;;;;;;;;;5097576;28;20514;-66
2023/09/14 05:15:08;;;;;;;2.30;1.77;;;;;;;;;;5094882;28;20234;-66
2023/09/14 05:17:36;;;;;;;1.90;1.63;;;;;;;;;;5096529;28;20239;-66
2023/09/14 05:20:06;;;;;;;2.20;2.00;;;;;;;;;;5095737;28;20611;-66
2023/09/14 05:22:34;;;;;;;2.80;2.30;;;;;;;;;;5096747;28;20231;-66
2023/09/14 05:25:03;;;;;;;2.38;1.80;;;;;;;;;;5096462;28;20199;-66
2023/09/14 05:27:36;;;;;;;2.90;2.00;;;;;;;;;;5096302;28;20207;-66
2023/09/14 05:30:03;;;;;;;2.92;2.15;;;;;;;;;;5076647;28;20219;-66
2023/09/14 05:32:31;;;;;;;2.25;1.95;;;;;;;;;;5076198;28;20208;-66
2023/09/14 05:34:58;;;;;;;2.28;2.08;;;;;;;;;;5076352;28;20323;-66
2023/09/14 05:37:26;;;;;;;2.75;2.38;;;;;;;;;;5075253;28;20653;-66
2023/09/14 05:39:53;;;;;;;2.58;2.00;;;;;;;;;;5075960;28;20204;-66
2023/09/14 05:42:23;;;;;;;2.38;2.17;;;;;;;;;;5076214;28;20200;-66
2023/09/14 05:44:56;;;;;;;2.35;2.15;;;;;;;;;;5075802;28;20621;-66
2023/09/14 05:47:24;;;;;;;2.95;2.25;;;;;;;;;;5075257;28;20216;-66
2023/09/14 05:49:51;;;;;;;2.30;2.10;;;;;;;;;;5073702;28;20243;-66
2023/09/14 05:52:19;;;;;;;2.38;1.85;;;;;;;;;;5075849;28;20215;-66
2023/09/14 05:54:46;;;;;;;3.40;2.20;;;;;;;;;;5075956;28;20282;-66
2023/09/14 05:57:14;;;;;;;2.80;2.20;;;;;;;;;;5075977;28;20247;-66
2023/09/14 05:59:41;;;;;;;2.70;2.15;;;;;;;;;;5075850;28;20204;-66
2023/09/14 06:02:10;;;;;;;2.10;1.90;;;;;;;;;;5076282;28;20196;-66
2023/09/14 06:04:38;;;;;;;2.63;2.00;;;;;;;;;;5075495;28;20192;-66
2023/09/14 06:07:05;;;;;;;2.20;1.90;;;;;;;;;;5075660;28;20212;-66
2023/09/14 06:09:33;;;;;;;2.45;2.15;;;;;;;;;;5076289;28;20266;-66
2023/09/14 06:12:01;;;;;;;4.40;2.15;;;;;;;;;;5075620;28;20204;-66
2023/09/14 06:14:28;;;;;;;2.65;2.13;;;;;;;;;;5075342;28;20319;-66
2023/09/14 06:16:56;;;;;;;2.80;2.17;;;;;;;;;;5076075;28;20320;-66
2023/09/14 06:19:25;;;;;;;2.63;2.20;;;;;;;;;;5075682;28;20204;-66
2023/09/14 06:21:52;;;;;;;3.13;2.08;;;;;;;;;;5075407;28;20565;-66
2023/09/14 06:24:19;;;;;;;3.63;2.10;;;;;;;;;;5075912;28;20226;-66
2023/09/14 06:26:47;;;;;;;2.72;1.90;;;;;;;;;;5076163;28;20258;-66
2023/09/14 06:29:16;;;;;;;2.33;2.13;;;;;;;;;;5076274;28;20204;-66
2023/09/14 06:31:43;;;;;;;3.13;2.08;;;;;;;;;;5076577;28;20231;-66
2023/09/14 06:34:11;;;;;;;2.42;2.22;;;;;;;;;;5082772;28;20302;-66
2023/09/14 06:36:39;;;;;;;2.58;2.03;;;;;;;;;;5088963;28;20606;-66
2023/09/14 06:39:07;;;;;;;3.95;2.20;;;;;;;;;;5095981;28;20293;-66
2023/09/14 06:41:34;;;;;;;3.70;2.20;;;;;;;;;;5096103;28;20210;-66
2023/09/14 06:44:02;;;;;;;2.50;2.25;;;;;;;;;;5096014;28;20641;-66
2023/09/14 06:46:30;;;;;;;2.72;2.00;;;;;;;;;;5095784;28;20567;-66
2023/09/14 06:48:57;;;;;;;2.40;2.20;;;;;;;;;;5095183;28;20653;-66
2023/09/14 06:51:25;;;;;;;2.53;2.13;;;;;;;;;;5095744;28;20280;-66
2023/09/14 06:53:54;;;;;;;4.07;2.28;;;;;;;;;;5095081;28;20235;-66
2023/09/14 06:56:21;;;;;;;3.08;2.10;;;;;;;;;;5095513;28;20323;-66
2023/09/14 06:58:48;;;;;;;3.95;2.10;;;;;;;;;;5094992;28;20199;-66
2023/09/14 07:01:16;;;;;;;2.75;2.38;;;;;;;;;;5095156;28;20231;-66
2023/09/14 07:03:44;;;;;;;3.80;2.38;;;;;;;;;;5095306;28;20551;-66
2023/09/14 07:06:11;;;;;;;2.40;2.05;;;;;;;;;;5095956;28;20203;-66
2023/09/14 07:08:41;;;;;;;2.47;2.20;;;;;;;;;;5095029;28;20280;-66
2023/09/14 07:11:10;;;;;;;4.93;2.28;;;;;;;;;;5094956;28;20211;-66
2023/09/14 07:13:37;;;;;;;2.63;2.13;;;;;;;;;;5095321;28;20285;-66
2023/09/14 07:16:05;;;;;;;3.03;1.98;;;;;;;;;;5094891;28;20543;-66
2023/09/14 07:18:33;;;;;;;2.53;2.03;;;;;;;;;;5095870;28;20222;-66
2023/09/14 07:21:02;;;;;;;2.58;2.28;;;;;;;;;;5094713;28;20261;-66
2023/09/14 07:23:30;;;;;;;3.10;2.20;;;;;;;;;;5095323;28;20242;-66
2023/09/14 07:25:57;;;;;;;3.05;2.10;;;;;;;;;;5094765;28;20204;-66
2023/09/14 07:28:26;;;;;;;2.30;2.00;;;;;;;;;;5094689;28;20599;-66
2023/09/14 07:30:54;;;;;;;3.15;2.13;;;;;;;;;;5095394;28;20595;-66
2023/09/14 07:33:24;;;;;;;2.00;1.80;;;;;;;;;;5094904;28;20623;-66
2023/09/14 07:35:51;;;;;;;3.38;2.33;;;;;;;;;;5094109;28;20227;-66
2023/09/14 07:38:19;;;;;;;3.08;2.20;;;;;;;;;;5094732;28;20277;-66
2023/09/14 07:40:47;;;;;;;3.70;2.17;;;;;;;;;;5098295;28;20291;-66
2023/09/14 07:43:14;;;;;;;2.83;2.00;;;;;;;;;;5097840;28;20211;-66
2023/09/14 07:45:43;;;;;;;2.75;2.15;;;;;;;;;;5098298;28;20199;-66
2023/09/14 07:48:11;;;;;;;2.67;2.08;;;;;;;;;;5098214;28;20298;-66
2023/09/14 07:50:40;;;;;;;2.60;2.28;;;;;;;;;;5097892;28;20218;-66
2023/09/14 07:53:08;;;;;;;3.17;2.00;;;;;;;;;;5094249;28;20315;-66
2023/09/14 07:55:35;;;;;;;3.47;2.10;;;;;;;;;;5090160;28;20228;-66
2023/09/14 07:58:03;;;;;;;3.15;1.85;;;;;;;;;;5109286;28;20199;-66
2023/09/14 08:00:30;;;;;;;2.65;2.20;;;;;;;;;;5117220;28;20226;-66
2023/09/14 08:02:59;;;;;;;2.80;2.10;;;;;;;;;;5106303;28;20616;-66
2023/09/14 08:05:26;;;;;;;2.92;2.13;;;;;;;;;;5118163;28;20575;-66
2023/09/14 08:07:54;;;;;;;2.95;2.38;;;;;;;;;;5118419;28;20307;-66
2023/09/14 08:10:22;;;;;;;2.80;2.10;;;;;;;;;;5118703;28;20245;-66
2023/09/14 08:12:49;;;;;;;3.30;2.20;;;;;;;;;;5118361;28;20210;-66
2023/09/14 08:15:17;;;;;;;3.00;2.22;;;;;;;;;;5118900;28;20221;-66
2023/09/14 08:17:45;;;;;;;2.88;2.30;;;;;;;;;;5112646;28;20260;-66
2023/09/14 08:20:14;;;;;;;3.47;2.30;;;;;;;;;;5118694;28;20203;-66
2023/09/14 08:22:42;;;;;;;2.70;2.10;;;;;;;;;;5118779;28;20205;-66
2023/09/14 08:25:10;;;;;;;2.70;2.05;;;;;;;;;;5118235;28;20307;-66
2023/09/14 08:27:39;;;;;;;2.88;2.15;;;;;;;;;;5118430;28;20210;-66
2023/09/14 08:30:08;;;;;;;3.60;2.38;;;;;;;;;;5102658;28;20199;-66
2023/09/14 08:32:36;;;;;;;4.70;2.50;;;;;;;;;;5118435;28;20214;-66
2023/09/14 08:35:18;;;;;;;3.63;2.45;;;;;;;;;;5117724;28;20321;-66
2023/09/14 08:37:47;;;;;;;2.90;2.20;;;;;;;;;;5117552;28;20231;-66
2023/09/14 08:40:15;;;;;;;3.15;2.10;;;;;;;;;;5118670;28;20260;-66
2023/09/14 08:42:42;;;;;;;2.85;2.35;;;;;;;;;;5117385;28;20203;-66
2023/09/14 08:45:12;;;;;;;2.55;2.22;;;;;;;;;;5117824;28;20292;-66
2023/09/14 08:47:42;;;;;;;3.40;2.30;;;;;;;;;;5118180;28;20203;-66
2023/09/14 08:50:13;;;;;;;4.20;2.20;;;;;;;;;;5118146;28;20199;-66
2023/09/14 08:52:41;;;;;;;3.60;2.58;;;;;;;;;;5117376;28;20211;-66
2023/09/14 08:55:12;;;;;;;3.42;2.45;;;;;;;;;;5117282;28;20651;-66
2023/09/14 08:57:40;;;;;;;3.15;2.00;;;;;;;;;;5116951;28;20259;-66
2023/09/14 09:00:14;;;;;;;3.05;2.25;;;;;;;;;;5117122;28;20227;-66
2023/09/14 09:02:43;;;;;;;2.85;2.20;;;;;;;;;;5115892;28;20226;-66
2023/09/14 09:05:12;;;;;;;3.45;2.00;;;;;;;;;;5116689;28;20206;-66
2023/09/14 09:07:40;;;;;;;2.42;2.00;;;;;;;;;;5116375;28;20199;-66
2023/09/14 09:10:09;;;;;;;3.25;2.00;;;;;;;;;;5116927;28;20497;-66
2023/09/14 09:12:38;;;;;;;2.72;2.05;;;;;;;;;;5116562;28;20203;-66
2023/09/14 09:15:07;;;;;;;2.65;2.25;;;;;;;;;;5115893;28;20226;-66
2023/09/14 09:17:44;;;;;;;3.67;2.90;;;;;;;;;;5116564;28;20199;-66
2023/09/14 09:20:16;;;;;;;4.25;2.60;;;;;;;;;;5116532;28;20205;-66
2023/09/14 09:22:44;;;;;;;3.28;2.88;;;;;;;;;;5117168;28;20260;-66
2023/09/14 09:25:12;;;;;;;3.47;2.65;;;;;;;;;;5116368;28;20199;-66
2023/09/14 09:27:41;;;;;;;2.85;2.40;;;;;;;;;;5116668;28;20241;-66
2023/09/14 09:30:09;;;;;;;3.03;2.50;;;;;;;;;;5117468;28;20763;-66
2023/09/14 09:32:38;;;;;;;3.47;3.00;;;;;;;;;;5116271;28;20618;-66
2023/09/14 09:35:17;;;;;;;3.50;3.13;;;;;;;;;;5116967;28;20214;-66
2023/09/14 09:37:45;;;;;;;3.70;2.75;;;;;;;;;;5116450;28;20485;-66
2023/09/14 09:40:16;;;;;;;3.47;2.60;;;;;;;;;;5116245;28;20549;-66
2023/09/14 09:42:45;;;;;;;3.80;2.80;;;;;;;;;;5115979;28;20743;-66
2023/09/14 09:45:13;;;;;;;3.65;2.58;;;;;;;;;;5115497;28;20199;-66
2023/09/14 09:47:41;;;;;;;3.20;2.88;;;;;;;;;;5116424;28;20203;-66
2023/09/14 09:50:09;;;;;;;3.50;3.20;;;;;;;;;;5116221;28;20740;-66
2023/09/14 09:52:37;;;;;;;4.15;3.50;;;;;;;;;;5116482;28;20263;-66
2023/09/14 09:55:05;;;;;;;3.40;3.05;;;;;;;;;;5116569;28;20591;-66
2023/09/14 09:57:36;;;;;;;3.17;2.88;;;;;;;;;;5116800;28;20500;-66
2023/09/14 10:00:13;;;;;;;4.43;3.10;;;;;;;;;;5116190;28;20214;-66
2023/09/14 10:02:41;;;;;;;5.28;3.40;;;;;;;;;;5115291;28;20198;-66
2023/09/14 10:05:09;;;;;;;3.47;2.78;;;;;;;;;;5116112;28;20455;-66
2023/09/14 10:07:42;;;;;;;3.15;2.85;;;;;;;;;;5116224;28;20603;-66
2023/09/14 10:10:10;;;;;;;3.50;3.20;;;;;;;;;;5116349;28;20878;-66
2023/09/14 10:12:41;;;;;;;3.30;3.00;;;;;;;;;;5115827;28;20589;-66
2023/09/14 10:15:11;;;;;;;3.60;3.30;;;;;;;;;;5115321;28;20306;-66
2023/09/14 10:17:38;;;;;;;4.22;3.05;;;;;;;;;;5114896;28;20199;-66
2023/09/14 10:20:08;;;;;;;3.10;2.85;;;;;;;;;;5115980;28;20306;-66
2023/09/14 10:22:37;;;;;;;3.10;2.80;;;;;;;;;;5114631;28;20199;-66
2023/09/14 10:25:06;;;;;;;3.85;3.30;;;;;;;;;;5115662;28;20210;-66
2023/09/14 10:27:34;;;;;;;3.35;3.05;;;;;;;;;;5115086;28;20194;-66
2023/09/14 10:30:03;;;;;;;3.42;3.13;;;;;;;;;;5113959;28;20202;-66
2023/09/14 10:32:33;;;;;;;3.60;3.30;;;;;;;;;;5113915;28;20199;-66
2023/09/14 10:35:02;;;;;;;3.50;3.20;;;;;;;;;;5114068;28;20234;-66
2023/09/14 10:37:30;;;;;;;3.60;3.30;;;;;;;;;;5113518;28;20230;-66
2023/09/14 10:39:58;;;;;;;4.00;3.40;;;;;;;;;;5113169;28;20205;-66
2023/09/14 10:42:26;;;;;;;3.47;3.28;;;;;;;;;;5113766;28;20203;-66
2023/09/14 10:44:53;;;;;;;3.90;3.60;;;;;;;;;;5114361;28;20238;-66
2023/09/14 10:47:23;;;;;;;4.30;4.00;;;;;;;;;;5114897;28;20241;-66
2023/09/14 10:49:52;;;;;;;4.10;3.80;;;;;;;;;;5114268;28;20286;-66
2023/09/14 10:52:27;;;;;;;4.30;4.00;;;;;;;;;;5113659;28;20297;-66
2023/09/14 10:54:55;;;;;;;3.95;3.65;;;;;;;;;;5114823;28;20198;-66
2023/09/14 10:57:27;;;;;;;4.40;4.10;;;;;;;;;;5114229;28;20339;-66
2023/09/14 10:59:55;;;;;;;5.07;4.45;;;;;;;;;;5114785;28;20195;-66
2023/09/14 11:02:37;;;;;;;4.70;4.30;;;;;;;;;;5114183;28;20293;-66
2023/09/14 11:05:16;;;;;;;4.97;4.57;;;;;;;;;;5112780;28;20249;-66
2023/09/14 11:07:46;;;;;;;5.05;4.55;;;;;;;;;;5114695;28;20206;-66
2023/09/14 11:10:16;;;;;;;4.93;4.60;;;;;;;;;;5114667;28;20595;-66
2023/09/14 11:12:44;;;;;;;4.95;4.53;;;;;;;;;;5114844;28;20198;-66
2023/09/14 11:15:15;;;;;;;5.20;4.80;;;;;;;;;;5116733;28;20195;-66
2023/09/14 11:17:43;;;;;;;5.00;4.55;;;;;;;;;;5118126;28;20225;-66
2023/09/14 11:20:25;;;;;;;5.00;4.60;;;;;;;;;;5118181;28;20207;-66
2023/09/14 11:22:54;;;;;;;5.03;4.63;;;;;;;;;;5118184;28;20249;-66
2023/09/14 11:25:26;;;;;;;5.30;4.90;;;;;;;;;;5119153;28;20274;-66
2023/09/14 11:27:54;;;;;;;4.88;4.57;;;;;;;;;;5118246;28;20237;-66
2023/09/14 11:30:24;;;;;;;5.60;5.20;;;;;;;;;;5118070;28;20485;-66
2023/09/14 11:32:52;;;;;;;5.45;4.95;;;;;;;;;;5117391;28;20305;-66
2023/09/14 11:35:19;;;;;;;5.47;4.97;;;;;;;;;;5118154;28;20194;-66
2023/09/14 11:37:47;;;;;;;5.32;5.03;;;;;;;;;;5117537;28;20656;-66
2023/09/14 11:40:16;;;;;;;5.80;5.35;;;;;;;;;;5118328;28;20248;-66
2023/09/14 11:43:02;;;;;;;5.78;5.38;;;;;;;;;;5116781;28;20562;-66
2023/09/14 11:45:30;;;;;;;5.80;5.30;;;;;;;;;;5117903;28;20534;-66
2023/09/14 11:47:57;;;;;;;6.15;5.65;;;;;;;;;;5117932;28;20249;-66
2023/09/14 11:50:25;;;;;;;5.95;5.55;;;;;;;;;;5117697;28;20309;-66
2023/09/14 11:52:54;;;;;;;6.38;5.93;;;;;;;;;;5117489;28;20203;-66
2023/09/14 11:55:23;;;;;;;6.68;6.10;;;;;;;;;;5117732;28;20575;-66
2023/09/14 11:57:51;;;;;;;5.93;5.50;;;;;;;;;;5117295;28;20716;-66
2023/09/14 12:00:19;;;;;;;6.38;5.88;;;;;;;;;;5117387;28;20485;-66
2023/09/14 12:02:46;;;;;;;6.32;5.82;;;;;;;;;;5117179;28;20207;-66
2023/09/14 12:05:15;;;;;;;6.45;5.85;;;;;;;;;;5117517;28;20238;-66
2023/09/14 12:07:42;;;;;;;5.95;5.55;;;;;;;;;;5116996;28;20238;-66
2023/09/14 12:10:19;;;;;;;5.80;5.40;;;;;;;;;;5117946;28;20205;-66
2023/09/14 12:12:48;;;;;;;6.05;5.63;;;;;;;;;;5116697;28;20255;-66
2023/09/14 12:15:19;;;;;;;5.60;5.20;;;;;;;;;;5117190;28;20295;-66
2023/09/14 12:17:51;;;;;;;6.53;6.03;;;;;;;;;;5117499;28;20227;-66
2023/09/14 12:20:19;;;;;;;5.70;5.20;;;;;;;;;;5117115;28;20198;-66
2023/09/14 12:22:47;;;;;;;5.78;5.38;;;;;;;;;;5117096;28;20682;-66
2023/09/14 12:25:14;;;;;;;5.50;5.10;;;;;;;;;;5116285;28;20236;-66
2023/09/14 12:27:42;;;;;;;5.72;5.32;;;;;;;;;;5117246;28;20277;-66
2023/09/14 12:30:13;;;;;;;5.13;4.82;;;;;;;;;;5117608;28;20238;-66
2023/09/14 12:32:40;;;;;;;5.35;5.05;;;;;;;;;;5116280;28;20210;-66
2023/09/14 12:35:11;;;;;;;5.60;5.20;;;;;;;;;;5116450;28;20305;-66
2023/09/14 12:37:39;;;;;;;5.40;5.00;;;;;;;;;;5116223;28;20225;-66
2023/09/14 12:40:10;;;;;;;5.60;5.20;;;;;;;;;;5115356;28;20199;-66
2023/09/14 12:42:37;;;;;;;5.60;5.20;;;;;;;;;;5116533;28;20203;-66
2023/09/14 12:45:12;;;;;;;5.18;4.80;;;;;;;;;;5115900;28;20245;-66
2023/09/14 12:47:40;;;;;;;5.32;4.93;;;;;;;;;;5115091;28;20209;-66
2023/09/14 12:50:15;;;;;;;5.10;4.75;;;;;;;;;;5115703;28;20656;-66
2023/09/14 12:52:43;;;;;;;4.82;4.53;;;;;;;;;;5115669;28;20305;-66
2023/09/14 12:55:14;;;;;;;4.78;4.47;;;;;;;;;;5117294;28;20650;-66
2023/09/14 12:57:44;;;;;;;4.80;4.40;;;;;;;;;;5115727;28;20215;-66
2023/09/14 13:00:14;;;;;;;5.20;4.80;;;;;;;;;;5116704;28;20213;-66
2023/09/14 13:02:43;;;;;;;4.85;4.55;;;;;;;;;;5116102;28;20290;-66
2023/09/14 13:05:11;;;;;;;5.18;4.78;;;;;;;;;;5115024;28;20226;-66
2023/09/14 13:07:38;;;;;;;4.65;4.32;;;;;;;;;;5116000;28;20195;-66
2023/09/14 13:10:10;;;;;;;4.50;4.20;;;;;;;;;;5115445;28;20246;-66
2023/09/14 13:12:38;;;;;;;4.75;4.43;;;;;;;;;;5115353;28;20310;-66
2023/09/14 13:15:19;;;;;;;4.80;4.50;;;;;;;;;;5116488;28;20203;-66
2023/09/14 13:17:47;;;;;;;4.80;4.50;;;;;;;;;;5116125;28;20245;-66
2023/09/14 13:20:14;;;;;;;4.82;4.50;;;;;;;;;;5115571;28;20294;-66
2023/09/14 13:22:41;;;;;;;4.88;4.53;;;;;;;;;;5115663;28;20260;-66
2023/09/14 13:25:09;;;;;;;4.32;4.03;;;;;;;;;;5115496;28;20290;-66
2023/09/14 13:27:40;;;;;;;4.60;4.20;;;;;;;;;;5115121;28;20702;-66
2023/09/14 13:30:09;;;;;;;5.25;4.85;;;;;;;;;;5115747;28;20293;-66
2023/09/14 13:32:38;;;;;;;4.82;4.53;;;;;;;;;;5114604;28;20268;-66
2023/09/14 13:35:07;;;;;;;4.80;4.40;;;;;;;;;;5114556;28;20210;-66
2023/09/14 13:37:34;;;;;;;4.97;4.60;;;;;;;;;;5113842;28;20527;-66
2023/09/14 13:40:05;;;;;;;4.68;4.28;;;;;;;;;;5115083;28;20207;-66
2023/09/14 13:42:33;;;;;;;4.25;3.97;;;;;;;;;;5115333;28;20202;-66
2023/09/14 13:45:01;;;;;;;4.15;3.85;;;;;;;;;;5115443;28;20496;-66
2023/09/14 13:47:28;;;;;;;4.55;4.25;;;;;;;;;;5115894;28;20198;-66
2023/09/14 13:49:57;;;;;;;5.28;4.88;;;;;;;;;;5115571;28;20746;-66
2023/09/14 13:52:24;;;;;;;4.63;4.32;;;;;;;;;;5115219;28;20241;-66
2023/09/14 13:54:52;;;;;;;4.90;4.50;;;;;;;;;;5114772;28;20238;-66
2023/09/14 13:57:19;;;;;;;5.07;4.70;;;;;;;;;;5114386;28;20259;-66
2023/09/14 13:59:49;;;;;;;5.10;4.70;;;;;;;;;;5114966;28;20217;-67
2023/09/14 14:02:16;;;;;;;4.70;4.40;;;;;;;;;;5115059;28;20218;-66
2023/09/14 14:04:44;;;;;;;5.53;5.13;;;;;;;;;;5114938;28;20214;-66
2023/09/14 14:07:13;;;;;;;5.68;5.20;;;;;;;;;;5114260;28;20231;-66
2023/09/14 14:09:41;;;;;;;5.53;5.13;;;;;;;;;;5115598;28;20406;-66
2023/09/14 14:12:09;;;;;;;5.68;5.20;;;;;;;;;;5114376;28;20533;-66
2023/09/14 14:14:37;;;;;;;6.50;5.97;;;;;;;;;;5114932;28;20203;-66
2023/09/14 14:17:05;;;;;;;6.18;5.68;;;;;;;;;;5114232;28;20250;-66
2023/09/14 14:19:33;;;;;;;6.13;5.63;;;;;;;;;;5115001;28;20221;-66
2023/09/14 14:22:00;;;;;;;6.53;6.03;;;;;;;;;;5114616;28;20213;-66
2023/09/14 14:24:31;;;;;;;5.72;5.32;;;;;;;;;;5115015;28;20247;-66
2023/09/14 14:26:59;;;;;;;5.82;5.35;;;;;;;;;;5114032;28;20265;-66
2023/09/14 14:29:26;;;;;;;6.45;5.78;;;;;;;;;;5114640;28;20298;-66
2023/09/14 14:31:54;;;;;;;6.30;5.80;;;;;;;;;;5114117;28;20619;-65
2023/09/14 14:34:22;;;;;;;6.22;5.72;;;;;;;;;;5113835;28;20705;-66
2023/09/14 14:36:49;;;;;;;6.25;5.75;;;;;;;;;;5115114;28;20233;-66
2023/09/14 14:39:17;;;;;;;7.25;6.75;;;;;;;;;;5114362;28;20230;-66
2023/09/14 14:41:46;;;;;;;7.18;6.68;;;;;;;;;;5114500;28;20202;-66
2023/09/14 14:44:13;;;;;;;7.13;6.53;;;;;;;;;;5114396;28;20202;-66
2023/09/14 14:46:41;;;;;;;7.90;7.30;;;;;;;;;;5114972;28;20230;-66
2023/09/14 14:49:09;;;;;;;7.15;6.57;;;;;;;;;;5113422;28;20215;-66
2023/09/14 14:51:37;;;;;;;6.75;6.25;;;;;;;;;;5113393;28;20199;-66